createdAt,value
2023-02-26T00:01:44.121Z,9.50
2023-02-26T00:04:12.385Z,12.00
2023-02-26T00:09:26.457Z,13.00
2023-02-26T00:11:55.015Z,10.00
2023-02-26T00:14:23.942Z,10.00
2023-02-26T00:17:06.395Z,9.00
2023-02-26T00:19:34.442Z,8.00
2023-02-26T00:22:02.743Z,10.00
2023-02-26T00:24:30.624Z,12.00
2023-02-26T00:27:00.216Z,9.67
2023-02-26T00:29:28.444Z,6.00
2023-02-26T00:31:56.804Z,9.00
2023-02-26T00:34:25.136Z,10.00
2023-02-26T00:37:25.422Z,6.00
2023-02-26T00:40:15.302Z,8.50
2023-02-26T00:42:43.496Z,10.00
2023-02-26T00:45:13.419Z,9.50
2023-02-26T00:48:10.545Z,8.00
2023-02-26T00:50:47.492Z,9.00
2023-02-26T00:53:27.253Z,7.00
2023-02-26T00:56:35.419Z,8.00
2023-02-26T00:59:03.601Z,9.00
2023-02-26T01:01:31.521Z,9.00
2023-02-26T01:04:00.161Z,7.50
2023-02-26T01:06:49.704Z,8.00
2023-02-26T01:09:23.148Z,8.00
2023-02-26T01:11:51.837Z,9.00
2023-02-26T01:14:21.556Z,9.00
2023-02-26T01:16:55.413Z,9.50
2023-02-26T01:19:41.806Z,6.00
2023-02-26T01:22:16.188Z,9.00
2023-02-26T01:24:46.297Z,9.00
2023-02-26T01:27:14.605Z,6.00
2023-02-26T01:29:42.840Z,10.00
2023-02-26T01:32:30.541Z,9.00
2023-02-26T01:35:09.201Z,10.00
2023-02-26T01:37:43.064Z,6.00
2023-02-26T01:40:41.720Z,10.00
2023-02-26T01:43:18.618Z,8.50
2023-02-26T01:46:01.799Z,11.00
2023-02-26T01:48:48.418Z,6.00
2023-02-26T01:51:16.550Z,8.00
2023-02-26T01:53:44.638Z,8.00
2023-02-26T01:56:17.360Z,8.00
2023-02-26T01:58:48.420Z,7.00
2023-02-26T02:01:19.156Z,5.00
2023-02-26T02:03:48.129Z,6.00
2023-02-26T02:06:22.924Z,5.00
2023-02-26T02:08:51.590Z,5.00
2023-02-26T02:11:20.415Z,8.00
2023-02-26T02:14:15.261Z,6.00
2023-02-26T02:16:58.753Z,8.00
2023-02-26T02:19:50.032Z,5.00
2023-02-26T02:22:49.359Z,6.00
2023-02-26T02:25:43.812Z,8.00
2023-02-26T02:28:39.269Z,5.00
2023-02-26T02:31:28.020Z,5.00
2023-02-26T02:34:00.091Z,6.00
2023-02-26T02:36:43.217Z,6.00
2023-02-26T02:39:22.133Z,5.00
2023-02-26T02:42:25.569Z,5.00
2023-02-26T02:45:00.585Z,6.00
2023-02-26T02:47:33.239Z,5.00
2023-02-26T02:50:34.361Z,5.00
2023-02-26T02:53:15.285Z,4.00
2023-02-26T02:55:50.251Z,2.00
2023-02-26T02:58:25.176Z,5.00
2023-02-26T03:01:10.280Z,4.00
2023-02-26T03:04:06.654Z,2.00
2023-02-26T03:09:05.374Z,4.00
2023-02-26T03:11:34.371Z,5.00
2023-02-26T03:14:04.768Z,2.00
2023-02-26T03:17:02.984Z,4.00
2023-02-26T03:19:52.178Z,5.00
2023-02-26T03:22:43.999Z,4.00
2023-02-26T03:25:25.039Z,4.00
2023-02-26T03:28:14.937Z,2.00
2023-02-26T03:30:55.635Z,3.00
2023-02-26T03:33:50.779Z,4.00
2023-02-26T03:36:47.365Z,4.00
2023-02-26T03:39:36.487Z,5.00
2023-02-26T03:42:12.132Z,4.00
2023-02-26T03:44:58.220Z,5.00
2023-02-26T03:47:27.585Z,6.00
2023-02-26T03:50:07.087Z,5.00
2023-02-26T03:52:45.464Z,5.00
2023-02-26T03:55:26.457Z,4.00
2023-02-26T03:58:03.650Z,5.50
2023-02-26T04:00:59.874Z,4.00
2023-02-26T04:03:36.807Z,6.00
2023-02-26T04:06:05.949Z,4.00
2023-02-26T04:08:34.735Z,5.00
2023-02-26T04:11:11.876Z,5.00
2023-02-26T04:13:40.022Z,6.00
2023-02-26T04:16:07.971Z,4.00
2023-02-26T04:18:36.201Z,8.00
2023-02-26T04:21:05.689Z,5.00
2023-02-26T04:23:33.829Z,5.00
2023-02-26T04:26:02.552Z,4.00
2023-02-26T04:28:30.982Z,5.00
2023-02-26T04:31:00.081Z,4.00
2023-02-26T04:33:28.291Z,4.67
2023-02-26T04:36:05.109Z,5.00
2023-02-26T04:38:34.044Z,4.00
2023-02-26T04:41:24.021Z,6.00
2023-02-26T04:43:53.572Z,4.00
2023-02-26T04:46:26.095Z,5.00
2023-02-26T04:48:55.099Z,7.00
2023-02-26T04:51:23.793Z,5.00
2023-02-26T04:53:52.571Z,4.00
2023-02-26T04:56:20.868Z,6.00
2023-02-26T04:58:48.989Z,4.00
2023-02-26T05:01:36.403Z,4.00
2023-02-26T05:04:07.244Z,2.00
2023-02-26T05:06:35.573Z,5.00
2023-02-26T05:09:04.028Z,7.00
2023-02-26T05:11:32.296Z,11.00
2023-02-26T05:14:02.835Z,8.00
2023-02-26T05:16:31.030Z,11.00
2023-02-26T05:18:59.109Z,8.00
2023-02-26T05:21:27.779Z,9.00
2023-02-26T05:23:56.404Z,6.00
2023-02-26T05:26:25.144Z,7.00
2023-02-26T05:28:53.403Z,9.00
2023-02-26T05:31:43.038Z,8.00
2023-02-26T05:34:11.791Z,9.00
2023-02-26T05:36:39.921Z,8.00
2023-02-26T05:39:09.878Z,4.00
2023-02-26T05:41:38.816Z,5.00
2023-02-26T05:44:08.258Z,6.00
2023-02-26T05:46:36.466Z,8.00
2023-02-26T05:49:04.970Z,6.33
2023-02-26T05:51:33.600Z,6.00
2023-02-26T05:54:01.754Z,5.50
2023-02-26T05:56:29.792Z,7.00
2023-02-26T05:58:58.282Z,6.00
2023-02-26T06:01:26.432Z,8.00
2023-02-26T06:03:54.690Z,9.00
2023-02-26T06:06:27.189Z,12.00
2023-02-26T06:08:55.542Z,11.00
2023-02-26T06:11:23.684Z,11.00
2023-02-26T06:16:20.807Z,12.00
2023-02-26T06:18:49.923Z,6.00
2023-02-26T06:21:19.027Z,8.00
2023-02-26T06:23:48.447Z,11.50
2023-02-26T06:26:36.656Z,8.50
2023-02-26T06:31:33.771Z,11.00
2023-02-26T06:34:06.324Z,5.00
2023-02-26T06:36:34.392Z,6.00
2023-02-26T06:39:02.497Z,11.00
2023-02-26T06:41:30.615Z,10.00
2023-02-26T06:43:58.876Z,8.00
2023-02-26T06:46:27.348Z,10.00
2023-02-26T06:48:55.631Z,8.00
2023-02-26T06:51:23.675Z,8.00
2023-02-26T06:53:51.879Z,8.00
2023-02-26T06:56:19.934Z,9.00
2023-02-26T06:58:48.387Z,8.00
2023-02-26T07:01:17.239Z,10.50
2023-02-26T07:03:45.441Z,9.00
2023-02-26T07:06:26.869Z,9.50
2023-02-26T07:08:56.580Z,8.00
2023-02-26T07:11:25.588Z,6.00
2023-02-26T07:13:53.670Z,6.00
2023-02-26T07:16:22.155Z,8.00
2023-02-26T07:18:50.198Z,9.00
2023-02-26T07:21:18.248Z,9.00
2023-02-26T07:23:46.421Z,8.00
2023-02-26T07:26:15.497Z,8.00
2023-02-26T07:28:43.634Z,12.00
2023-02-26T07:31:11.854Z,12.00
2023-02-26T07:33:40.049Z,10.00
2023-02-26T07:36:08.406Z,7.00
2023-02-26T07:38:36.384Z,6.00
2023-02-26T07:41:04.630Z,3.00
2023-02-26T07:43:32.611Z,9.00
2023-02-26T07:46:00.824Z,8.00
2023-02-26T07:48:28.856Z,9.00
2023-02-26T07:50:57.812Z,8.00
2023-02-26T07:53:26.134Z,7.00
2023-02-26T07:55:54.236Z,13.00
2023-02-26T07:58:22.441Z,12.00
2023-02-26T08:00:52.770Z,17.00
2023-02-26T08:03:21.388Z,18.00
2023-02-26T08:05:49.771Z,19.00
2023-02-26T08:08:17.823Z,21.00
2023-02-26T08:10:45.802Z,10.00
2023-02-26T08:13:13.798Z,11.00
2023-02-26T08:18:12.365Z,11.00
2023-02-26T08:20:40.476Z,22.00
2023-02-26T08:23:08.613Z,8.33
2023-02-26T08:25:36.691Z,10.00
2023-02-26T08:28:04.854Z,7.00
2023-02-26T08:30:32.958Z,17.50
2023-02-26T08:33:01.144Z,28.50
2023-02-26T08:35:29.404Z,38.00
2023-02-26T08:37:57.876Z,60.00
2023-02-26T08:40:26.203Z,58.00
2023-02-26T08:42:54.706Z,85.50
2023-02-26T08:45:22.810Z,89.00
2023-02-26T08:47:56.996Z,70.00
2023-02-26T08:50:26.611Z,60.00
2023-02-26T08:52:55.184Z,40.00
2023-02-26T08:55:23.603Z,25.00
2023-02-26T08:57:52.013Z,16.00
2023-02-26T09:00:20.494Z,10.00
2023-02-26T09:02:49.177Z,10.00
2023-02-26T09:05:17.527Z,8.00
2023-02-26T09:07:47.392Z,10.00
2023-02-26T09:10:16.083Z,7.00
2023-02-26T09:12:44.751Z,6.00
2023-02-26T09:15:14.642Z,6.00
2023-02-26T09:17:43.049Z,6.00
2023-02-26T09:20:12.269Z,2.00
2023-02-26T09:22:40.506Z,4.00
2023-02-26T09:25:09.263Z,4.00
2023-02-26T09:27:37.479Z,1.50
2023-02-26T09:30:11.716Z,3.50
2023-02-26T09:32:40.087Z,3.00
2023-02-26T09:35:08.709Z,2.00
2023-02-26T09:37:36.825Z,7.00
2023-02-26T09:40:05.789Z,9.00
2023-02-26T09:43:02.542Z,10.50
2023-02-26T09:45:38.128Z,8.00
2023-02-26T09:48:07.592Z,5.00
2023-02-26T09:50:44.298Z,3.00
2023-02-26T09:53:28.167Z,1.00
2023-02-26T09:56:02.014Z,2.00
2023-02-26T09:58:38.250Z,2.00
2023-02-26T10:01:09.316Z,4.00
2023-02-26T10:04:08.608Z,6.00
2023-02-26T10:07:03.076Z,6.00
2023-02-26T10:09:48.812Z,6.00
2023-02-26T10:12:21.036Z,7.00
2023-02-26T10:14:54.610Z,15.00
2023-02-26T10:17:26.933Z,16.00
2023-02-26T10:20:01.978Z,16.00
2023-02-26T10:22:37.608Z,11.00
2023-02-26T10:25:13.397Z,10.50
2023-02-26T10:28:06.680Z,11.00
2023-02-26T10:30:37.748Z,10.00
2023-02-26T10:33:12.818Z,1.50
2023-02-26T10:35:54.597Z,10.00
2023-02-26T10:38:31.357Z,12.00
2023-02-26T10:41:12.766Z,10.00
2023-02-26T10:43:45.301Z,14.00
2023-02-26T10:46:41.704Z,11.00
2023-02-26T10:49:40.916Z,11.00
2023-02-26T10:52:21.450Z,7.00
2023-02-26T10:54:59.682Z,9.50
2023-02-26T10:57:33.260Z,7.00
2023-02-26T11:00:01.948Z,7.00
2023-02-26T11:02:52.258Z,11.00
2023-02-26T11:05:25.750Z,10.00
2023-02-26T11:07:57.673Z,7.00
2023-02-26T11:10:37.154Z,6.00
2023-02-26T11:13:05.234Z,5.00
2023-02-26T11:15:33.481Z,6.00
2023-02-26T11:18:02.363Z,23.00
2023-02-26T11:20:41.122Z,28.00
2023-02-26T11:23:14.788Z,36.00
2023-02-26T11:25:43.115Z,24.00
2023-02-26T11:28:40.674Z,20.00
2023-02-26T11:31:11.909Z,14.00
2023-02-26T11:33:45.263Z,8.00
2023-02-26T11:36:18.004Z,9.00
2023-02-26T11:38:52.436Z,28.00
2023-02-26T11:41:22.471Z,35.00
2023-02-26T11:44:05.989Z,41.50
2023-02-26T11:46:42.070Z,27.00
2023-02-26T11:49:13.113Z,21.00
2023-02-26T11:51:45.618Z,26.00
2023-02-26T11:54:23.943Z,23.00
2023-02-26T11:56:52.077Z,15.00
2023-02-26T11:59:23.010Z,14.00
2023-02-26T12:01:53.432Z,13.00
2023-02-26T12:04:27.479Z,14.00
2023-02-26T12:06:56.637Z,10.00
2023-02-26T12:09:26.303Z,9.00
2023-02-26T12:12:15.092Z,9.00
2023-02-26T12:14:50.829Z,8.50
2023-02-26T12:17:43.773Z,8.00
2023-02-26T12:20:47.383Z,4.67
2023-02-26T12:23:27.578Z,8.00
2023-02-26T12:26:12.957Z,8.00
2023-02-26T12:28:53.521Z,10.00
2023-02-26T12:31:26.484Z,9.00
2023-02-26T12:34:35.782Z,10.00
2023-02-26T12:37:18.954Z,8.00
2023-02-26T12:39:56.454Z,13.00
2023-02-26T12:42:33.630Z,24.00
2023-02-26T12:45:20.285Z,30.00
2023-02-26T12:48:13.376Z,33.00
2023-02-26T12:51:02.730Z,24.33
2023-02-26T12:53:56.366Z,19.00
2023-02-26T12:56:58.021Z,16.50
2023-02-26T12:59:51.988Z,16.00
2023-02-26T13:02:48.378Z,9.00
2023-02-26T13:05:27.279Z,14.00
2023-02-26T13:08:04.383Z,16.50
2023-02-26T13:11:28.390Z,16.33
2023-02-26T13:14:24.646Z,14.00
2023-02-26T13:16:52.767Z,16.00
2023-02-26T13:19:28.217Z,9.00
2023-02-26T13:22:16.001Z,9.50
2023-02-26T13:24:57.435Z,12.00
2023-02-26T13:27:33.864Z,8.00
2023-02-26T13:30:05.002Z,10.00
2023-02-26T13:32:35.488Z,6.50
2023-02-26T13:35:19.794Z,14.00
2023-02-26T13:37:52.561Z,20.00
2023-02-26T13:40:43.603Z,14.67
2023-02-26T13:43:38.162Z,21.00
2023-02-26T13:46:41.211Z,16.00
2023-02-26T13:49:27.535Z,5.50
2023-02-26T13:51:57.073Z,5.00
2023-02-26T13:54:41.689Z,6.00
2023-02-26T13:57:37.520Z,8.00
2023-02-26T14:00:24.364Z,5.00
2023-02-26T14:03:11.174Z,5.00
2023-02-26T14:05:48.318Z,4.00
2023-02-26T14:08:27.327Z,3.00
2023-02-26T14:11:03.073Z,5.50
2023-02-26T14:13:36.498Z,8.00
2023-02-26T14:16:13.771Z,5.50
2023-02-26T14:18:47.903Z,6.00
2023-02-26T14:21:25.529Z,6.00
2023-02-26T14:24:38.830Z,9.50
2023-02-26T14:27:12.788Z,12.00
2023-02-26T14:29:44.235Z,13.00
2023-02-26T14:32:14.247Z,8.50
2023-02-26T14:34:51.192Z,8.33
2023-02-26T14:37:25.469Z,10.00
2023-02-26T14:40:09.166Z,9.00
2023-02-26T14:42:45.062Z,9.00
2023-02-26T14:45:16.330Z,12.00
2023-02-26T14:47:47.269Z,9.00
2023-02-26T14:50:19.877Z,11.00
2023-02-26T14:55:43.429Z,9.00
2023-02-26T14:58:17.839Z,6.00
2023-02-26T15:01:12.571Z,6.00
2023-02-26T15:04:06.006Z,9.00
2023-02-26T15:06:46.187Z,8.50
2023-02-26T15:09:24.275Z,12.00
2023-02-26T15:12:33.599Z,9.00
2023-02-26T15:15:23.449Z,10.00
2023-02-26T15:18:11.905Z,13.00
2023-02-26T15:21:01.680Z,16.00
2023-02-26T15:23:43.365Z,14.00
2023-02-26T15:26:33.099Z,13.00
2023-02-26T15:29:06.161Z,9.00
2023-02-26T15:31:37.861Z,12.00
2023-02-26T15:34:05.974Z,10.50
2023-02-26T15:36:34.264Z,13.00
2023-02-26T15:39:07.175Z,12.00
2023-02-26T15:41:35.757Z,9.00
2023-02-26T15:44:10.857Z,10.00
2023-02-26T15:46:43.221Z,8.50
2023-02-26T15:49:34.447Z,7.00
2023-02-26T15:52:05.042Z,7.00
2023-02-26T15:54:47.084Z,9.00
2023-02-26T15:57:17.352Z,5.00
2023-02-26T15:59:50.754Z,6.00
2023-02-26T16:02:26.877Z,2.00
2023-02-26T16:04:55.440Z,5.00
2023-02-26T16:07:24.501Z,16.00
2023-02-26T16:09:55.254Z,27.00
2023-02-26T16:12:49.444Z,30.00
2023-02-26T16:15:26.462Z,27.00
2023-02-26T16:17:56.075Z,38.00
2023-02-26T16:20:28.007Z,29.67
2023-02-26T16:23:16.330Z,23.50
2023-02-26T16:25:59.174Z,15.00
2023-02-26T16:28:31.478Z,14.00
2023-02-26T16:31:04.629Z,10.50
2023-02-26T16:33:34.772Z,11.00
2023-02-26T16:36:18.429Z,13.00
2023-02-26T16:38:50.077Z,11.50
2023-02-26T16:41:24.510Z,11.00
2023-02-26T16:43:57.787Z,18.00
2023-02-26T16:46:46.142Z,16.00
2023-02-26T16:49:20.289Z,17.00
2023-02-26T16:51:49.283Z,17.00
2023-02-26T16:54:27.257Z,12.50
2023-02-26T16:57:04.272Z,14.50
2023-02-26T16:59:36.278Z,16.00
2023-02-26T17:02:19.208Z,17.50
2023-02-26T17:04:52.889Z,19.00
2023-02-26T17:07:27.634Z,24.00
2023-02-26T17:10:05.895Z,27.00
2023-02-26T17:12:46.847Z,21.50
2023-02-26T17:15:30.392Z,18.50
2023-02-26T17:17:59.237Z,19.00
2023-02-26T17:20:29.729Z,12.00
2023-02-26T17:23:00.066Z,16.00
2023-02-26T17:25:36.298Z,14.50
2023-02-26T17:28:06.326Z,13.00
2023-02-26T17:30:34.789Z,15.50
2023-02-26T17:33:08.027Z,13.50
2023-02-26T17:35:36.169Z,18.00
2023-02-26T17:38:13.338Z,15.00
2023-02-26T17:40:44.202Z,16.00
2023-02-26T17:43:12.293Z,17.50
2023-02-26T17:45:41.226Z,17.00
2023-02-26T17:48:13.579Z,17.50
2023-02-26T17:50:48.496Z,12.00
2023-02-26T17:53:18.691Z,12.00
2023-02-26T17:55:48.927Z,16.67
2023-02-26T17:58:27.844Z,21.00
2023-02-26T18:00:57.110Z,13.50
2023-02-26T18:03:25.523Z,17.00
2023-02-26T18:05:56.327Z,21.50
2023-02-26T18:08:27.930Z,23.00
2023-02-26T18:10:57.461Z,24.00
2023-02-26T18:15:56.903Z,23.50
2023-02-26T18:18:26.791Z,28.00
2023-02-26T18:20:55.201Z,28.00
2023-02-26T18:23:23.783Z,31.00
2023-02-26T18:25:54.792Z,25.00
2023-02-26T18:28:26.485Z,31.00
2023-02-26T18:30:55.679Z,31.00
2023-02-26T18:33:24.596Z,34.00
2023-02-26T18:35:57.000Z,39.50
2023-02-26T18:38:28.408Z,42.00
2023-02-26T18:40:56.966Z,43.00
2023-02-26T18:43:25.346Z,43.00
2023-02-26T18:45:53.781Z,39.00
2023-02-26T18:48:22.089Z,44.50
2023-02-26T18:50:50.573Z,40.00
2023-02-26T18:53:23.292Z,43.00
2023-02-26T18:55:53.219Z,39.00
2023-02-26T18:58:21.960Z,35.00
2023-02-26T19:00:59.454Z,31.00
2023-02-26T19:03:27.527Z,33.00
2023-02-26T19:06:03.563Z,30.00
2023-02-26T19:08:31.979Z,32.00
2023-02-26T19:11:00.574Z,23.50
2023-02-26T19:13:29.182Z,33.50
2023-02-26T19:15:57.741Z,31.00
2023-02-26T19:18:26.148Z,35.00
2023-02-26T19:20:54.602Z,27.00
2023-02-26T19:23:24.282Z,38.50
2023-02-26T19:25:52.389Z,33.50
2023-02-26T19:28:20.622Z,42.50
2023-02-26T19:30:48.995Z,37.50
2023-02-26T19:33:20.344Z,46.00
2023-02-26T19:35:48.565Z,43.00
2023-02-26T19:38:17.138Z,43.00
2023-02-26T19:40:45.485Z,41.00
2023-02-26T19:43:13.553Z,46.00
2023-02-26T19:45:41.635Z,51.00
2023-02-26T19:48:09.935Z,50.00
2023-02-26T19:50:38.132Z,53.00
2023-02-26T19:53:06.278Z,50.50
2023-02-26T19:55:34.430Z,48.00
2023-02-26T19:58:02.648Z,49.00
2023-02-26T20:00:30.699Z,46.00
2023-02-26T20:02:59.276Z,38.00
2023-02-26T20:05:27.421Z,47.00
2023-02-26T20:07:56.519Z,41.00
2023-02-26T20:10:26.635Z,44.00
2023-02-26T20:12:56.322Z,43.50
2023-02-26T20:15:25.057Z,40.00
2023-02-26T20:17:53.278Z,42.00
2023-02-26T20:20:22.282Z,48.00
2023-02-26T20:22:50.406Z,46.00
2023-02-26T20:25:20.010Z,37.33
2023-02-26T20:27:48.151Z,36.00
2023-02-26T20:30:16.433Z,34.00
2023-02-26T20:32:44.715Z,34.00
2023-02-26T20:35:13.318Z,30.00
2023-02-26T20:37:41.595Z,30.00
2023-02-26T20:40:10.516Z,16.50
2023-02-26T20:42:38.657Z,17.50
2023-02-26T20:45:08.133Z,16.00
2023-02-26T20:47:36.285Z,17.00
2023-02-26T20:50:04.758Z,13.00
2023-02-26T20:52:33.011Z,17.00
2023-02-26T20:55:01.333Z,14.00
2023-02-26T20:57:32.484Z,14.00
2023-02-26T21:00:00.604Z,13.50
2023-02-26T21:02:48.757Z,19.00
2023-02-26T21:05:17.706Z,18.00
2023-02-26T21:07:46.514Z,19.00
2023-02-26T21:10:16.937Z,22.00
2023-02-26T21:12:46.221Z,16.00
2023-02-26T21:15:14.941Z,22.50
2023-02-26T21:17:43.831Z,19.00
2023-02-26T21:20:16.001Z,17.00
2023-02-26T21:22:46.403Z,14.00
2023-02-26T21:25:14.558Z,13.00
2023-02-26T21:27:42.693Z,13.00
2023-02-26T21:30:12.209Z,15.00
2023-02-26T21:32:41.283Z,16.00
2023-02-26T21:35:16.070Z,19.00
2023-02-26T21:37:45.315Z,17.00
2023-02-26T21:40:15.866Z,17.00
2023-02-26T21:42:44.224Z,19.50
2023-02-26T21:45:14.669Z,20.00
2023-02-26T21:47:42.675Z,15.50
2023-02-26T21:50:12.006Z,18.50
2023-02-26T21:52:40.028Z,19.00
2023-02-26T21:55:08.668Z,20.00
2023-02-26T21:57:36.769Z,18.50
2023-02-26T22:00:06.565Z,18.50
2023-02-26T22:02:40.419Z,21.00
2023-02-26T22:05:10.297Z,18.00
2023-02-26T22:07:39.164Z,18.00
2023-02-26T22:12:36.142Z,19.00
2023-02-26T22:15:04.719Z,21.00
2023-02-26T22:17:32.813Z,17.00
2023-02-26T22:20:00.817Z,17.00
2023-02-26T22:22:31.576Z,20.00
2023-02-26T22:25:00.100Z,17.50
2023-02-26T22:27:28.392Z,22.00
2023-02-26T22:29:56.419Z,18.00
2023-02-26T22:32:24.720Z,17.50
2023-02-26T22:34:52.819Z,10.00
2023-02-26T22:37:21.912Z,18.00
2023-02-26T22:39:49.923Z,20.00
2023-02-26T22:42:18.026Z,19.00
2023-02-26T22:44:46.123Z,26.00
2023-02-26T22:47:14.376Z,28.00
2023-02-26T22:49:42.618Z,20.00
2023-02-26T22:52:10.988Z,32.00
2023-02-26T22:54:39.350Z,37.00
2023-02-26T22:57:08.819Z,22.50
2023-02-26T22:59:38.974Z,27.00
2023-02-26T23:02:06.959Z,26.50
2023-02-26T23:04:36.462Z,19.50
2023-02-26T23:07:04.571Z,18.33
2023-02-26T23:09:32.934Z,20.00
2023-02-26T23:12:01.113Z,18.00
2023-02-26T23:14:29.144Z,20.50
2023-02-26T23:16:58.024Z,25.00
2023-02-26T23:19:26.735Z,22.00
2023-02-26T23:21:56.470Z,17.50
2023-02-26T23:24:24.744Z,17.00
2023-02-26T23:26:53.445Z,12.00
2023-02-26T23:29:21.711Z,9.00
2023-02-26T23:31:49.847Z,9.33
2023-02-26T23:34:18.053Z,9.50
2023-02-26T23:36:46.320Z,12.00
2023-02-26T23:39:15.439Z,11.00
2023-02-26T23:41:43.482Z,12.00
2023-02-26T23:44:11.630Z,12.00
2023-02-26T23:46:39.674Z,12.00
2023-02-26T23:49:09.650Z,14.00
2023-02-26T23:51:38.621Z,9.00
2023-02-26T23:54:08.687Z,11.00
2023-02-26T23:56:47.177Z,10.00
